createdAt,value
2022-10-25T00:00:13.911Z,13.7
2022-10-25T00:01:20.463Z,13.7
2022-10-25T00:02:27.044Z,13.7
2022-10-25T00:03:33.578Z,13.7
2022-10-25T00:04:40.135Z,13.7
2022-10-25T00:05:46.690Z,13.7
2022-10-25T00:06:53.259Z,13.7
2022-10-25T00:07:59.806Z,13.7
2022-10-25T00:09:06.392Z,13.7
2022-10-25T00:10:12.921Z,13.7
2022-10-25T00:11:19.546Z,13.7
2022-10-25T00:12:26.037Z,13.7
2022-10-25T00:13:32.625Z,13.6
2022-10-25T00:14:39.165Z,13.6
2022-10-25T00:15:45.700Z,13.5
2022-10-25T00:16:52.249Z,13.5
2022-10-25T00:17:58.816Z,13.5
2022-10-25T00:19:05.376Z,13.5
2022-10-25T00:20:11.947Z,13.4
2022-10-25T00:21:18.478Z,13.4
2022-10-25T00:22:25.278Z,13.4
2022-10-25T00:23:32.062Z,13.4
2022-10-25T00:24:38.862Z,13.4
2022-10-25T00:25:45.653Z,13.4
2022-10-25T00:26:52.495Z,13.3
2022-10-25T00:27:59.236Z,13.3
2022-10-25T00:29:06.031Z,13.3
2022-10-25T00:30:12.827Z,13.3
2022-10-25T00:31:19.656Z,13.4
2022-10-25T00:32:26.414Z,13.4
2022-10-25T00:33:33.207Z,13.4
2022-10-25T00:34:39.997Z,13.4
2022-10-25T00:35:46.793Z,13.4
2022-10-25T00:38:27.219Z,13.4
2022-10-25T00:40:05.967Z,13.4
2022-10-25T00:41:44.679Z,13.5
2022-10-25T00:43:23.410Z,13.5
2022-10-25T00:44:30.688Z,13.5
2022-10-25T00:45:37.947Z,13.5
2022-10-25T00:47:16.736Z,13.6
2022-10-25T00:48:55.421Z,13.6
2022-10-25T00:50:34.165Z,13.6
2022-10-25T00:52:12.923Z,13.7
2022-10-25T00:53:51.643Z,13.7
2022-10-25T00:55:30.373Z,13.7
2022-10-25T00:57:09.146Z,13.7
2022-10-25T01:00:58.740Z,13.8
2022-10-25T01:02:05.403Z,13.8
2022-10-25T01:03:11.842Z,13.9
2022-10-25T01:04:18.262Z,13.9
2022-10-25T01:05:24.703Z,13.9
2022-10-25T01:06:31.126Z,13.9
2022-10-25T01:07:37.564Z,13.9
2022-10-25T01:08:43.993Z,13.9
2022-10-25T01:09:50.444Z,13.9
2022-10-25T01:10:56.891Z,14
2022-10-25T01:12:03.289Z,14
2022-10-25T01:13:09.722Z,13.9
2022-10-25T01:14:16.165Z,14
2022-10-25T01:15:22.581Z,14
2022-10-25T01:16:29.017Z,14
2022-10-25T01:17:35.449Z,14.1
2022-10-25T01:18:41.882Z,14.1
2022-10-25T01:19:48.320Z,14.1
2022-10-25T01:20:54.764Z,14.1
2022-10-25T01:22:01.222Z,14.1
2022-10-25T01:23:07.638Z,14.1
2022-10-25T01:24:14.073Z,14.1
2022-10-25T01:25:20.522Z,14.1
2022-10-25T01:26:26.950Z,14.1
2022-10-25T01:27:33.456Z,14.2
2022-10-25T01:28:39.821Z,14.2
2022-10-25T01:29:46.392Z,14.2
2022-10-25T01:30:52.947Z,14.2
2022-10-25T01:31:59.499Z,14.2
2022-10-25T01:33:06.067Z,14.2
2022-10-25T01:34:12.610Z,14.2
2022-10-25T01:35:19.161Z,14.2
2022-10-25T01:36:25.716Z,14.2
2022-10-25T01:37:32.277Z,14.2
2022-10-25T01:38:38.827Z,14.2
2022-10-25T01:39:45.389Z,14.2
2022-10-25T01:40:51.937Z,14.3
2022-10-25T01:41:58.485Z,14.3
2022-10-25T01:43:05.043Z,14.3
2022-10-25T01:44:54.375Z,14.3
2022-10-25T01:46:01.143Z,14.3
2022-10-25T01:47:07.934Z,14.4
2022-10-25T01:48:14.728Z,14.4
2022-10-25T01:49:21.514Z,14.4
2022-10-25T01:50:28.299Z,14.4
2022-10-25T01:51:35.096Z,14.4
2022-10-25T01:52:41.895Z,14.4
2022-10-25T01:53:48.681Z,14.4
2022-10-25T01:54:55.478Z,14.4
2022-10-25T01:56:02.267Z,14.5
2022-10-25T01:57:09.081Z,14.5
2022-10-25T01:58:15.843Z,14.5
2022-10-25T02:01:33.948Z,14.5
2022-10-25T02:03:09.563Z,14.5
2022-10-25T02:04:16.746Z,14.5
2022-10-25T02:05:55.537Z,14.5
2022-10-25T02:07:34.217Z,14.6
2022-10-25T02:09:12.942Z,14.6
2022-10-25T02:10:51.687Z,14.6
2022-10-25T02:12:30.420Z,14.5
2022-10-25T02:14:09.152Z,14.6
2022-10-25T02:15:47.886Z,14.6
2022-10-25T02:17:26.681Z,14.6
2022-10-25T02:19:05.356Z,14.6
2022-10-25T02:20:12.633Z,14.6
2022-10-25T02:23:13.355Z,14.6
2022-10-25T02:26:29.040Z,14.6
2022-10-25T02:27:35.601Z,14.6
2022-10-25T02:28:42.143Z,14.6
2022-10-25T02:29:48.710Z,14.6
2022-10-25T02:30:55.266Z,14.6
2022-10-25T02:32:01.817Z,14.6
2022-10-25T02:33:08.393Z,14.6
2022-10-25T02:34:14.913Z,14.7
2022-10-25T02:35:21.473Z,14.7
2022-10-25T02:36:28.024Z,14.7
2022-10-25T02:37:34.592Z,14.7
2022-10-25T02:38:41.141Z,14.7
2022-10-25T02:39:47.713Z,14.7
2022-10-25T02:40:54.277Z,14.7
2022-10-25T02:42:00.818Z,14.7
2022-10-25T02:43:07.367Z,14.7
2022-10-25T02:44:13.917Z,14.6
2022-10-25T02:45:20.525Z,14.6
2022-10-25T02:46:27.016Z,14.7
2022-10-25T02:47:33.589Z,14.7
2022-10-25T02:48:40.228Z,14.7
2022-10-25T02:49:46.683Z,14.7
2022-10-25T02:50:53.242Z,14.6
2022-10-25T02:51:59.794Z,14.7
2022-10-25T02:53:06.375Z,14.7
2022-10-25T02:54:13.150Z,14.7
2022-10-25T02:55:19.957Z,14.7
2022-10-25T02:56:26.751Z,14.7
2022-10-25T02:57:33.525Z,14.7
2022-10-25T02:58:40.312Z,14.8
2022-10-25T02:59:47.103Z,14.8
2022-10-25T03:00:53.895Z,14.8
2022-10-25T03:02:00.762Z,14.8
2022-10-25T03:03:07.473Z,14.8
2022-10-25T03:04:14.269Z,14.8
2022-10-25T03:05:21.083Z,14.8
2022-10-25T03:06:27.845Z,14.8
2022-10-25T03:07:34.643Z,14.8
2022-10-25T03:08:41.947Z,14.8
2022-10-25T03:10:20.673Z,14.8
2022-10-25T03:11:59.416Z,14.8
2022-10-25T03:13:38.143Z,14.8
2022-10-25T03:15:16.881Z,14.8
2022-10-25T03:16:55.616Z,14.7
2022-10-25T03:18:34.353Z,14.7
2022-10-25T03:20:13.095Z,14.7
2022-10-25T03:21:51.856Z,14.7
2022-10-25T03:23:30.574Z,14.6
2022-10-25T03:25:09.300Z,14.6
2022-10-25T03:26:48.036Z,14.6
2022-10-25T03:28:26.767Z,14.6
2022-10-25T03:32:34.773Z,14.6
2022-10-25T03:33:43.301Z,14.6
2022-10-25T03:35:50.331Z,14.6
2022-10-25T03:36:56.764Z,14.7
2022-10-25T03:38:03.208Z,14.7
2022-10-25T03:39:09.651Z,14.7
2022-10-25T03:40:16.076Z,14.7
2022-10-25T03:41:22.511Z,14.7
2022-10-25T03:42:28.949Z,14.7
2022-10-25T03:43:35.397Z,14.7
2022-10-25T03:44:41.820Z,14.7
2022-10-25T03:45:48.260Z,14.7
2022-10-25T03:46:54.703Z,14.7
2022-10-25T03:48:01.137Z,14.7
2022-10-25T03:49:07.576Z,14.7
2022-10-25T03:50:14.013Z,14.7
2022-10-25T03:51:20.484Z,14.7
2022-10-25T03:52:26.907Z,14.7
2022-10-25T03:53:33.321Z,14.7
2022-10-25T03:54:39.776Z,14.7
2022-10-25T03:55:46.194Z,14.7
2022-10-25T03:56:52.632Z,14.7
2022-10-25T03:57:59.070Z,14.6
2022-10-25T03:59:05.499Z,14.6
2022-10-25T04:00:12.025Z,14.5
2022-10-25T04:01:18.378Z,14.5
2022-10-25T04:02:24.801Z,14.5
2022-10-25T04:03:31.370Z,14.4
2022-10-25T04:04:37.924Z,14.5
2022-10-25T04:05:44.541Z,14.5
2022-10-25T04:06:51.028Z,14.6
2022-10-25T04:07:57.578Z,14.6
2022-10-25T04:09:04.127Z,14.6
2022-10-25T04:10:10.678Z,14.6
2022-10-25T04:11:17.233Z,14.7
2022-10-25T04:12:23.786Z,14.7
2022-10-25T04:13:30.346Z,14.7
2022-10-25T04:14:36.899Z,14.7
2022-10-25T04:15:43.449Z,14.7
2022-10-25T04:16:49.997Z,14.7
2022-10-25T04:17:57.843Z,14.7
2022-10-25T04:19:04.596Z,14.8
2022-10-25T04:20:11.388Z,14.8
2022-10-25T04:21:18.235Z,14.8
2022-10-25T04:22:24.962Z,14.8
2022-10-25T04:23:31.753Z,14.8
2022-10-25T04:24:38.539Z,14.7
2022-10-25T04:25:45.328Z,14.7
2022-10-25T04:26:52.126Z,14.7
2022-10-25T04:27:59.011Z,14.7
2022-10-25T04:29:05.725Z,14.7
2022-10-25T04:30:12.500Z,14.7
2022-10-25T04:31:19.279Z,14.7
2022-10-25T04:34:37.438Z,14.6
2022-10-25T04:35:44.704Z,14.6
2022-10-25T04:36:52.002Z,14.6
2022-10-25T04:38:30.701Z,14.6
2022-10-25T04:40:09.441Z,14.5
2022-10-25T04:41:48.177Z,14.5
2022-10-25T04:43:26.902Z,14.5
2022-10-25T04:45:05.639Z,14.5
2022-10-25T04:46:44.370Z,14.5
2022-10-25T04:48:23.099Z,14.5
2022-10-25T04:50:01.846Z,14.4
2022-10-25T04:51:40.560Z,14.5
2022-10-25T04:52:47.828Z,14.5
2022-10-25T04:55:48.617Z,14.6
2022-10-25T04:59:04.294Z,14.6
2022-10-25T05:00:10.946Z,14.5
2022-10-25T05:01:17.441Z,14.5
2022-10-25T05:02:24.058Z,14.5
2022-10-25T05:03:30.505Z,14.5
2022-10-25T05:04:37.056Z,14.5
2022-10-25T05:05:43.601Z,14.5
2022-10-25T05:06:50.150Z,14.5
2022-10-25T05:07:56.706Z,14.5
2022-10-25T05:09:03.259Z,14.5
2022-10-25T05:10:09.813Z,14.5
2022-10-25T05:11:16.374Z,14.4
2022-10-25T05:12:22.934Z,14.4
2022-10-25T05:13:29.480Z,14.4
2022-10-25T05:14:36.021Z,14.4
2022-10-25T05:15:42.576Z,14.4
2022-10-25T05:16:49.126Z,14.4
2022-10-25T05:17:55.687Z,14.5
2022-10-25T05:19:02.276Z,14.5
2022-10-25T05:20:08.822Z,14.5
2022-10-25T05:21:15.339Z,14.4
2022-10-25T05:22:21.892Z,14.4
2022-10-25T05:23:28.440Z,14.4
2022-10-25T05:24:34.999Z,14.4
2022-10-25T05:25:41.542Z,14.4
2022-10-25T05:26:48.349Z,14.4
2022-10-25T05:27:55.148Z,14.3
2022-10-25T05:29:01.925Z,14.3
2022-10-25T05:30:08.706Z,14.2
2022-10-25T05:31:15.683Z,14.2
2022-10-25T05:32:22.307Z,14.2
2022-10-25T05:33:29.075Z,14.1
2022-10-25T05:34:35.864Z,14
2022-10-25T05:35:42.645Z,14
2022-10-25T05:36:49.442Z,14
2022-10-25T05:37:56.214Z,14
2022-10-25T05:39:03.009Z,13.9
2022-10-25T05:40:09.796Z,13.9
2022-10-25T05:41:17.097Z,13.9
2022-10-25T05:42:55.821Z,13.8
2022-10-25T05:44:34.554Z,13.7
2022-10-25T05:46:13.323Z,13.7
2022-10-25T05:47:52.026Z,13.6
2022-10-25T05:49:30.757Z,13.6
2022-10-25T05:51:09.502Z,13.6
2022-10-25T05:52:48.241Z,13.6
2022-10-25T05:54:26.963Z,13.6
2022-10-25T05:56:05.700Z,13.6
2022-10-25T05:57:44.433Z,13.5
2022-10-25T05:59:23.206Z,13.5
2022-10-25T06:01:01.900Z,13.6
2022-10-25T06:05:09.897Z,13.6
2022-10-25T06:06:16.948Z,13.5
2022-10-25T06:08:25.804Z,13.5
2022-10-25T06:09:32.614Z,13.4
2022-10-25T06:10:39.390Z,13.4
2022-10-25T06:11:46.206Z,13.4
2022-10-25T06:12:52.963Z,13.4
2022-10-25T06:13:59.811Z,13.4
2022-10-25T06:15:06.545Z,13.4
2022-10-25T06:16:13.371Z,13.5
2022-10-25T06:17:20.123Z,13.4
2022-10-25T06:18:26.949Z,13.4
2022-10-25T06:19:33.733Z,13.4
2022-10-25T06:20:40.506Z,13.4
2022-10-25T06:21:47.288Z,13.3
2022-10-25T06:22:54.081Z,13.3
2022-10-25T06:24:00.871Z,13.3
2022-10-25T06:25:07.660Z,13.3
2022-10-25T06:26:14.460Z,13.3
2022-10-25T06:27:21.245Z,13.3
2022-10-25T06:28:28.034Z,13.3
2022-10-25T06:29:34.865Z,13.3
2022-10-25T06:30:41.613Z,13.4
2022-10-25T06:31:48.405Z,13.4
2022-10-25T06:32:55.195Z,13.4
2022-10-25T06:34:01.989Z,13.5
2022-10-25T06:35:34.815Z,13.5
2022-10-25T06:37:13.544Z,13.5
2022-10-25T06:38:52.282Z,13.5
2022-10-25T06:40:31.016Z,13.4
2022-10-25T06:42:09.771Z,13.4
2022-10-25T06:43:17.033Z,13.4
2022-10-25T06:44:24.282Z,13.3
2022-10-25T06:46:03.016Z,13.2
2022-10-25T06:47:41.812Z,13.2
2022-10-25T06:49:20.488Z,13.2
2022-10-25T06:50:59.223Z,13.3
2022-10-25T06:52:37.955Z,13.3
2022-10-25T06:54:16.691Z,13.3
2022-10-25T06:58:24.740Z,13.4
2022-10-25T06:59:43.298Z,13.8
2022-10-25T07:01:40.371Z,13.9
2022-10-25T07:02:46.921Z,14
2022-10-25T07:03:53.475Z,14.1
2022-10-25T07:05:00.041Z,14.1
2022-10-25T07:06:06.586Z,14.2
2022-10-25T07:07:13.131Z,14.2
2022-10-25T07:08:19.690Z,14.3
2022-10-25T07:09:26.316Z,14.3
2022-10-25T07:10:32.837Z,14.3
2022-10-25T07:11:39.389Z,14.4
2022-10-25T07:12:45.917Z,14.4
2022-10-25T07:13:52.439Z,14.3
2022-10-25T07:14:58.995Z,14.2
2022-10-25T07:16:05.554Z,14.2
2022-10-25T07:17:12.121Z,14.1
2022-10-25T07:18:18.654Z,14
2022-10-25T07:19:25.206Z,14
2022-10-25T07:20:31.753Z,14
2022-10-25T07:21:38.306Z,14
2022-10-25T07:22:44.848Z,14.1
2022-10-25T07:23:51.401Z,14.2
2022-10-25T07:24:57.951Z,14.2
2022-10-25T07:26:04.504Z,14.3
2022-10-25T07:27:11.062Z,14.3
2022-10-25T07:28:17.872Z,14.3
2022-10-25T07:29:24.638Z,14.4
2022-10-25T07:30:31.435Z,14.5
2022-10-25T07:31:38.217Z,14.6
2022-10-25T07:32:45.034Z,14.7
2022-10-25T07:33:51.842Z,14.7
2022-10-25T07:34:58.592Z,14.8
2022-10-25T07:36:05.429Z,14.8
2022-10-25T07:37:12.195Z,14.8
2022-10-25T07:38:18.971Z,14.9
2022-10-25T07:39:25.747Z,14.9
2022-10-25T07:40:32.538Z,14.9
2022-10-25T07:41:39.398Z,14.9
2022-10-25T07:44:17.905Z,15
2022-10-25T07:45:56.617Z,15
2022-10-25T07:47:35.322Z,15
2022-10-25T07:49:14.098Z,15.1
2022-10-25T07:50:21.361Z,15.2
2022-10-25T07:51:28.587Z,15.2
2022-10-25T07:53:07.314Z,15.2
2022-10-25T07:54:46.078Z,15.2
2022-10-25T07:56:24.778Z,15.2
2022-10-25T07:58:03.520Z,15.3
2022-10-25T07:59:42.258Z,15.3
2022-10-25T08:01:20.999Z,15.4
2022-10-25T08:02:59.713Z,15.4
2022-10-25T08:06:49.306Z,15.4
2022-10-25T08:07:55.783Z,15.3
2022-10-25T08:09:02.263Z,15.3
2022-10-25T08:10:08.648Z,15.3
2022-10-25T08:11:15.077Z,15.2
2022-10-25T08:12:21.512Z,15.3
2022-10-25T08:13:27.939Z,15.3
2022-10-25T08:14:34.377Z,15.3
2022-10-25T08:15:40.805Z,15.4
2022-10-25T08:16:47.401Z,15.5
2022-10-25T08:17:53.810Z,15.5
2022-10-25T08:19:00.249Z,15.6
2022-10-25T08:20:06.689Z,15.5
2022-10-25T08:21:13.133Z,15.5
2022-10-25T08:22:19.441Z,15.6
2022-10-25T08:23:25.989Z,15.6
2022-10-25T08:24:32.407Z,15.5
2022-10-25T08:25:38.701Z,15.5
2022-10-25T08:26:45.245Z,15.6
2022-10-25T08:27:51.622Z,15.6
2022-10-25T08:28:58.068Z,15.6
2022-10-25T08:30:04.457Z,15.8
2022-10-25T08:31:10.991Z,15.9
2022-10-25T08:32:17.287Z,16
2022-10-25T08:33:23.741Z,15.9
2022-10-25T08:34:30.179Z,15.9
2022-10-25T08:35:36.762Z,15.9
2022-10-25T08:36:43.368Z,15.8
2022-10-25T08:37:49.834Z,15.9
2022-10-25T08:38:56.386Z,15.9
2022-10-25T08:40:02.945Z,15.9
2022-10-25T08:41:09.560Z,16
2022-10-25T08:42:16.025Z,16.1
2022-10-25T08:43:22.588Z,16.1
2022-10-25T08:44:29.152Z,16.5
2022-10-25T08:45:35.684Z,16.7
2022-10-25T08:46:42.239Z,16.9
2022-10-25T08:47:48.912Z,17.2
2022-10-25T08:48:55.337Z,17.2
2022-10-25T08:50:44.698Z,17.2
2022-10-25T08:51:51.472Z,17.3
2022-10-25T08:52:58.305Z,17.4
2022-10-25T08:54:05.122Z,17.4
2022-10-25T08:55:11.905Z,17.4
2022-10-25T08:56:18.721Z,17.3
2022-10-25T08:57:25.394Z,17.2
2022-10-25T08:58:32.267Z,17.2
2022-10-25T08:59:39.065Z,17.3
2022-10-25T09:00:45.792Z,17.2
2022-10-25T09:01:52.646Z,17.3
2022-10-25T09:02:59.393Z,17.1
2022-10-25T09:04:06.168Z,17.1
2022-10-25T09:07:24.332Z,17.1
2022-10-25T09:08:59.843Z,17
2022-10-25T09:10:07.031Z,16.8
2022-10-25T09:11:45.757Z,16.9
2022-10-25T09:13:24.497Z,16.9
2022-10-25T09:15:03.228Z,16.8
2022-10-25T09:16:42.027Z,16.8
2022-10-25T09:18:20.698Z,16.8
2022-10-25T09:19:59.432Z,16.8
2022-10-25T09:21:38.210Z,16.8
2022-10-25T09:23:16.951Z,16.7
2022-10-25T09:24:55.647Z,16.8
2022-10-25T09:26:02.965Z,16.8
2022-10-25T09:29:03.744Z,16.8
2022-10-25T09:32:19.644Z,16.6
2022-10-25T09:33:26.367Z,16.6
2022-10-25T09:34:33.266Z,16.6
2022-10-25T09:35:39.954Z,16.6
2022-10-25T09:36:46.874Z,16.6
2022-10-25T09:37:53.654Z,16.5
2022-10-25T09:39:00.315Z,16.5
2022-10-25T09:40:07.146Z,16.5
2022-10-25T09:41:13.892Z,16.3
2022-10-25T09:42:20.762Z,16.3
2022-10-25T09:43:27.572Z,16.4
2022-10-25T09:44:34.410Z,16.4
2022-10-25T09:45:41.075Z,16.5
2022-10-25T09:46:47.883Z,16.6
2022-10-25T09:47:54.771Z,16.6
2022-10-25T09:49:01.528Z,16.5
2022-10-25T09:50:08.348Z,16.5
2022-10-25T09:51:15.081Z,16.4
2022-10-25T09:52:21.854Z,16.5
2022-10-25T09:53:28.695Z,16.5
2022-10-25T09:54:35.454Z,16.6
2022-10-25T09:55:42.211Z,16.7
2022-10-25T09:56:48.957Z,16.7
2022-10-25T09:57:55.847Z,16.7
2022-10-25T09:59:02.593Z,16.7
2022-10-25T10:00:35.826Z,16.7
2022-10-25T10:01:43.095Z,16.6
2022-10-25T10:03:21.954Z,16.6
2022-10-25T10:05:00.672Z,16.6
2022-10-25T10:06:39.297Z,16.6
2022-10-25T10:08:18.100Z,16.4
2022-10-25T10:09:56.863Z,16.3
2022-10-25T10:11:35.546Z,16.3
2022-10-25T10:13:14.340Z,16.4
2022-10-25T10:14:53.025Z,16.5
2022-10-25T10:16:31.684Z,16.6
2022-10-25T10:17:38.990Z,16.6
2022-10-25T10:18:46.262Z,16.7
2022-10-25T10:22:54.261Z,16.8
2022-10-25T10:26:10.207Z,16.9
2022-10-25T10:27:16.913Z,17.3
2022-10-25T10:28:23.726Z,17.3
2022-10-25T10:29:30.496Z,17.4
2022-10-25T10:30:37.289Z,17.6
2022-10-25T10:31:44.085Z,18
2022-10-25T10:32:50.862Z,18.2
2022-10-25T10:33:57.673Z,18.3
2022-10-25T10:35:04.431Z,18.4
2022-10-25T10:36:11.263Z,18.2
2022-10-25T10:37:18.039Z,18
2022-10-25T10:38:24.812Z,17.9
2022-10-25T10:39:31.590Z,17.9
2022-10-25T10:40:38.386Z,17.8
2022-10-25T10:41:45.194Z,17.7
2022-10-25T10:42:51.978Z,17.7
2022-10-25T10:43:58.853Z,17.5
2022-10-25T10:45:05.574Z,17.3
2022-10-25T10:46:12.428Z,17.3
2022-10-25T10:47:19.127Z,17.3
2022-10-25T10:48:25.989Z,17.1
2022-10-25T10:49:32.730Z,17
2022-10-25T10:50:39.575Z,16.9
2022-10-25T10:51:46.284Z,16.8
2022-10-25T10:52:53.068Z,16.8
2022-10-25T10:54:26.546Z,16.7
2022-10-25T10:56:05.241Z,16.7
2022-10-25T10:57:43.970Z,16.8
2022-10-25T10:59:22.802Z,16.9
2022-10-25T11:01:01.560Z,17
2022-10-25T11:02:08.683Z,17
2022-10-25T11:03:15.958Z,17.1
2022-10-25T11:04:54.835Z,17.1
2022-10-25T11:06:33.436Z,17.3
2022-10-25T11:08:12.269Z,17.4
2022-10-25T11:09:50.907Z,17.3
2022-10-25T11:11:29.623Z,17.3
2022-10-25T11:13:08.355Z,17.4
2022-10-25T11:17:16.493Z,17.5
2022-10-25T11:18:35.003Z,17.5
2022-10-25T11:20:32.074Z,17.6
2022-10-25T11:21:38.590Z,17.8
2022-10-25T11:22:45.183Z,17.9
2022-10-25T11:23:51.712Z,18
2022-10-25T11:24:58.343Z,18.1
2022-10-25T11:26:04.900Z,18.3
2022-10-25T11:27:11.346Z,18.2
2022-10-25T11:28:17.931Z,18.4
2022-10-25T11:29:24.548Z,18.3
2022-10-25T11:30:31.004Z,18.3
2022-10-25T11:31:37.557Z,18.8
2022-10-25T11:32:44.159Z,19.2
2022-10-25T11:33:50.693Z,19.1
2022-10-25T11:34:57.241Z,19
2022-10-25T11:36:03.743Z,19
2022-10-25T11:37:10.320Z,19.1
2022-10-25T11:38:16.893Z,19.3
2022-10-25T11:39:23.549Z,20.2
2022-10-25T11:40:29.953Z,20.7
2022-10-25T11:41:36.539Z,21
2022-10-25T11:42:43.174Z,20.8
2022-10-25T11:43:49.718Z,20.3
2022-10-25T11:44:56.149Z,20
2022-10-25T11:46:02.748Z,20.2
2022-10-25T11:47:09.481Z,20.3
2022-10-25T11:48:16.267Z,20.8
2022-10-25T11:49:23.057Z,21.6
2022-10-25T11:50:29.845Z,22.2
2022-10-25T11:51:36.640Z,22.9
2022-10-25T11:52:43.558Z,23.6
2022-10-25T11:53:50.341Z,23.8
2022-10-25T11:54:57.083Z,24.4
2022-10-25T11:56:03.806Z,24.3
2022-10-25T11:57:10.628Z,23.4
2022-10-25T11:58:17.378Z,22.2
2022-10-25T11:59:24.171Z,21.2
2022-10-25T12:00:31.074Z,20.3
2022-10-25T12:01:38.261Z,19.5
2022-10-25T12:03:17.129Z,19
2022-10-25T12:04:55.757Z,18.4
2022-10-25T12:06:34.530Z,17.9
2022-10-25T12:08:13.254Z,17.9
2022-10-25T12:09:52.019Z,17.8
2022-10-25T12:11:30.664Z,17.9
2022-10-25T12:13:09.387Z,18.1
2022-10-25T12:14:48.139Z,18.9
2022-10-25T12:16:26.869Z,20.2
2022-10-25T12:18:05.650Z,22.1
2022-10-25T12:19:44.318Z,21.4
2022-10-25T12:21:23.052Z,21.2
2022-10-25T12:25:31.077Z,21.1
2022-10-25T12:26:38.477Z,22.5
2022-10-25T12:28:47.533Z,22.3
2022-10-25T12:30:26.233Z,22.9
2022-10-25T12:32:04.941Z,23.8
2022-10-25T12:33:43.792Z,22.8
2022-10-25T12:35:22.521Z,22.3
2022-10-25T12:37:01.149Z,21.1
2022-10-25T12:38:39.942Z,20.5
2022-10-25T12:40:18.602Z,20.4
2022-10-25T12:41:57.315Z,19.7
2022-10-25T12:43:36.072Z,19.4
2022-10-25T12:44:43.343Z,19.1
2022-10-25T12:45:50.597Z,20.4
2022-10-25T12:47:29.324Z,21.7
2022-10-25T12:49:08.112Z,23.3
2022-10-25T12:50:46.780Z,24.2
2022-10-25T12:52:25.512Z,24
2022-10-25T12:54:04.243Z,23.3
2022-10-25T12:55:42.981Z,21.9
2022-10-25T12:57:21.784Z,20.8
2022-10-25T12:59:00.486Z,20
2022-10-25T13:00:39.175Z,19
2022-10-25T13:01:46.458Z,18.7
2022-10-25T13:02:53.817Z,18.4
2022-10-25T13:04:32.443Z,18.3
2022-10-25T13:08:40.488Z,18.2
2022-10-25T13:11:56.097Z,18
2022-10-25T13:13:02.799Z,18
2022-10-25T13:14:09.187Z,18
2022-10-25T13:15:15.822Z,18
2022-10-25T13:16:22.333Z,18.1
2022-10-25T13:17:28.839Z,18.1
2022-10-25T13:18:35.517Z,18
2022-10-25T13:19:41.963Z,17.9
2022-10-25T13:20:48.517Z,17.9
2022-10-25T13:21:55.176Z,17.9
2022-10-25T13:23:01.739Z,17.9
2022-10-25T13:24:08.170Z,17.9
2022-10-25T13:25:14.721Z,17.9
2022-10-25T13:26:21.319Z,18
2022-10-25T13:27:27.886Z,17.9
2022-10-25T13:28:34.435Z,17.9
2022-10-25T13:29:40.921Z,17.9
2022-10-25T13:30:47.603Z,17.8
2022-10-25T13:31:54.031Z,17.8
2022-10-25T13:33:00.614Z,18.5
2022-10-25T13:34:07.204Z,19.1
2022-10-25T13:35:13.682Z,19.5
2022-10-25T13:36:20.239Z,20
2022-10-25T13:37:26.790Z,20.2
2022-10-25T13:38:33.392Z,20
2022-10-25T13:39:40.210Z,20.1
2022-10-25T13:40:46.914Z,20
2022-10-25T13:41:53.721Z,19.6
2022-10-25T13:43:00.564Z,19.2
2022-10-25T13:44:07.289Z,18.8
2022-10-25T13:45:14.062Z,18.5
2022-10-25T13:46:20.859Z,18.1
2022-10-25T13:47:27.651Z,17.8
2022-10-25T13:48:34.479Z,17.6
2022-10-25T13:49:41.229Z,17.6
2022-10-25T13:50:48.019Z,17.5
2022-10-25T13:51:54.811Z,17.5
2022-10-25T13:53:01.646Z,17.3
2022-10-25T13:56:19.822Z,17.2
2022-10-25T13:57:58.511Z,17.1
2022-10-25T13:59:05.772Z,17
2022-10-25T14:00:13.037Z,17
2022-10-25T14:01:51.820Z,17.2
2022-10-25T14:03:30.460Z,17.4
2022-10-25T14:05:09.281Z,17.7
2022-10-25T14:06:47.962Z,17.8
2022-10-25T14:08:26.668Z,17.9
2022-10-25T14:10:05.410Z,17.7
2022-10-25T14:11:44.220Z,17.6
2022-10-25T14:13:22.887Z,17.5
2022-10-25T14:15:01.668Z,17.3
2022-10-25T14:16:41.412Z,17.1
2022-10-25T14:19:57.108Z,17.1
2022-10-25T14:21:03.590Z,16.9
2022-10-25T14:22:10.234Z,16.9
2022-10-25T14:23:16.738Z,16.9
2022-10-25T14:24:23.250Z,16.9
2022-10-25T14:25:29.811Z,16.9
2022-10-25T14:26:36.366Z,16.7
2022-10-25T14:27:42.930Z,16.7
2022-10-25T14:28:49.483Z,16.7
2022-10-25T14:29:56.021Z,16.6
2022-10-25T14:31:02.626Z,16.6
2022-10-25T14:32:09.140Z,16.6
2022-10-25T14:33:15.680Z,16.6
2022-10-25T14:34:22.272Z,16.6
2022-10-25T14:35:28.787Z,16.6
2022-10-25T14:36:35.341Z,16.5
2022-10-25T14:37:41.938Z,16.5
2022-10-25T14:38:48.439Z,16.5
2022-10-25T14:39:55.073Z,16.5
2022-10-25T14:41:01.559Z,16.5
2022-10-25T14:42:08.153Z,16.5
2022-10-25T14:43:14.648Z,16.4
2022-10-25T14:44:21.204Z,16.4
2022-10-25T14:45:27.753Z,16.4
2022-10-25T14:46:34.310Z,16.4
2022-10-25T14:47:41.107Z,16.4
2022-10-25T14:48:47.899Z,16.4
2022-10-25T14:49:54.679Z,16.4
2022-10-25T14:51:01.569Z,16.4
2022-10-25T14:52:08.284Z,16.4
2022-10-25T14:53:15.071Z,16.4
2022-10-25T14:54:21.847Z,16.4
2022-10-25T14:55:28.677Z,16.4
2022-10-25T14:56:35.461Z,16.4
2022-10-25T14:57:42.222Z,16.4
2022-10-25T14:58:49.011Z,16.4
2022-10-25T14:59:55.821Z,16.3
2022-10-25T15:01:02.594Z,16.3
2022-10-25T15:03:42.450Z,16.3
2022-10-25T15:05:21.166Z,16.3
2022-10-25T15:06:59.873Z,16.2
2022-10-25T15:08:38.590Z,16.2
2022-10-25T15:09:45.873Z,16.2
2022-10-25T15:10:53.139Z,16.2
2022-10-25T15:12:31.923Z,16.2
2022-10-25T15:14:10.596Z,16.1
2022-10-25T15:15:49.488Z,16.2
2022-10-25T15:17:28.235Z,16.2
2022-10-25T15:19:06.923Z,16.2
2022-10-25T15:20:45.644Z,16.2
2022-10-25T15:22:24.414Z,16.1
2022-10-25T15:26:13.923Z,16
2022-10-25T15:27:21.992Z,15.9
2022-10-25T15:30:37.577Z,15.9
2022-10-25T15:31:44.028Z,16
2022-10-25T15:32:50.477Z,15.9
2022-10-25T15:33:56.927Z,15.7
2022-10-25T15:35:03.292Z,15.7
2022-10-25T15:36:09.704Z,15.6
2022-10-25T15:37:16.223Z,15.6
2022-10-25T15:38:22.645Z,15.6
2022-10-25T15:39:29.157Z,15.5
2022-10-25T15:40:35.555Z,15.5
2022-10-25T15:41:41.996Z,15.5
2022-10-25T15:42:48.410Z,15.4
2022-10-25T15:43:54.860Z,15.4
2022-10-25T15:45:01.246Z,15.3
2022-10-25T15:46:07.673Z,15.3
2022-10-25T15:47:14.045Z,15.3
2022-10-25T15:48:20.612Z,15.2
2022-10-25T15:49:27.050Z,15.1
2022-10-25T15:50:33.357Z,15.1
2022-10-25T15:51:39.876Z,15
2022-10-25T15:52:46.257Z,15
2022-10-25T15:53:52.712Z,15
2022-10-25T15:54:59.124Z,15
2022-10-25T15:56:05.534Z,14.9
2022-10-25T15:57:12.009Z,14.9
2022-10-25T15:58:18.537Z,14.8
2022-10-25T15:59:25.070Z,14.7
2022-10-25T16:00:31.639Z,14.7
2022-10-25T16:01:38.181Z,14.6
2022-10-25T16:02:44.761Z,14.6
2022-10-25T16:03:51.292Z,14.5
2022-10-25T16:04:57.922Z,14.4
2022-10-25T16:06:04.442Z,14.4
2022-10-25T16:07:10.966Z,14.3
2022-10-25T16:08:17.519Z,14.2
2022-10-25T16:09:24.132Z,14.2
2022-10-25T16:10:30.646Z,14.1
2022-10-25T16:11:37.280Z,14
2022-10-25T16:13:09.266Z,14
2022-10-25T16:14:16.094Z,13.9
2022-10-25T16:15:22.864Z,13.8
2022-10-25T16:16:29.663Z,13.8
2022-10-25T16:17:36.446Z,13.7
2022-10-25T16:18:43.231Z,13.7
2022-10-25T16:19:50.132Z,13.6
2022-10-25T16:20:56.834Z,13.5
2022-10-25T16:22:03.692Z,13.5
2022-10-25T16:23:10.416Z,13.5
2022-10-25T16:24:17.207Z,13.4
2022-10-25T16:25:24.059Z,13.4
2022-10-25T16:26:30.804Z,13.4
2022-10-25T16:29:48.995Z,13.3
2022-10-25T16:31:27.635Z,13.2
2022-10-25T16:33:06.443Z,13.2
2022-10-25T16:34:13.739Z,13.2
2022-10-25T16:35:20.926Z,13.2
2022-10-25T16:36:59.639Z,13.2
2022-10-25T16:38:38.386Z,13.1
2022-10-25T16:40:17.106Z,13
2022-10-25T16:41:55.896Z,12.9
2022-10-25T16:43:34.582Z,12.8
2022-10-25T16:45:13.327Z,12.8
2022-10-25T16:46:52.059Z,12.8
2022-10-25T16:48:30.927Z,12.8
2022-10-25T16:50:41.686Z,12.7
2022-10-25T16:52:37.008Z,12.6
2022-10-25T16:53:43.398Z,12.4
2022-10-25T16:54:49.866Z,12.3
2022-10-25T16:55:56.249Z,12.3
2022-10-25T16:57:02.722Z,12.2
2022-10-25T16:58:09.165Z,12.2
2022-10-25T16:59:15.545Z,12.1
2022-10-25T17:00:22.031Z,12.1
2022-10-25T17:01:28.453Z,12
2022-10-25T17:02:34.940Z,11.9
2022-10-25T17:03:41.275Z,11.9
2022-10-25T17:04:47.741Z,11.8
2022-10-25T17:05:54.210Z,11.8
2022-10-25T17:07:00.623Z,11.8
2022-10-25T17:08:07.158Z,11.7
2022-10-25T17:09:13.582Z,11.7
2022-10-25T17:10:19.989Z,11.7
2022-10-25T17:11:26.348Z,11.7
2022-10-25T17:12:32.888Z,11.7
2022-10-25T17:13:39.326Z,11.6
2022-10-25T17:14:45.666Z,11.6
2022-10-25T17:15:52.146Z,11.6
2022-10-25T17:16:58.627Z,11.5
2022-10-25T17:18:05.020Z,11.5
2022-10-25T17:19:11.511Z,11.5
2022-10-25T17:20:17.993Z,11.5
2022-10-25T17:21:24.540Z,11.5
2022-10-25T17:22:31.087Z,11.4
2022-10-25T17:23:37.702Z,11.5
2022-10-25T17:24:44.197Z,11.5
2022-10-25T17:25:50.750Z,11.5
2022-10-25T17:26:57.336Z,11.5
2022-10-25T17:28:03.863Z,11.4
2022-10-25T17:29:10.489Z,11.4
2022-10-25T17:30:17.013Z,11.3
2022-10-25T17:31:23.524Z,11.3
2022-10-25T17:32:30.087Z,11.3
2022-10-25T17:33:36.640Z,11.3
2022-10-25T17:34:44.449Z,11.3